Time;durP1;ratioP1;P1;durP2;ratioP2;P2;SDS_P1;SDS_P2;PMS_P1;PMS_P2;Temp;Humidity;BMP_temperature;BMP_pressure;BME280_temperature;BME280_humidity;BME280_pressure;Samples;Min_cycle;Max_cycle;Signal;HPM_P1;HPM_P2
2022/09/27 00:00:25;;;;;;;8.07;2.22;;;11.40;99.90;;;;;;4955423;28;20023;-76
2022/09/27 00:02:55;;;;;;;4.68;1.20;;;11.40;99.90;;;;;;4964756;28;20834;-72
2022/09/27 00:05:21;;;;;;;2.60;1.10;;;11.40;99.90;;;;;;4948946;28;20035;-77
2022/09/27 00:07:46;;;;;;;3.20;1.20;;;11.40;99.90;;;;;;4962458;28;20635;-78
2022/09/27 00:10:12;;;;;;;9.30;2.05;;;11.40;99.90;;;;;;4964371;28;20035;-77
2022/09/27 00:12:39;;;;;;;7.15;1.67;;;11.30;99.90;;;;;;4960697;28;20034;-77
2022/09/27 00:15:06;;;;;;;6.45;1.63;;;11.30;99.90;;;;;;4958673;28;20069;-78
2022/09/27 00:17:32;;;;;;;7.63;1.85;;;11.30;99.90;;;;;;4964405;28;20359;-77
2022/09/27 00:20:04;;;;;;;5.13;1.08;;;11.30;99.90;;;;;;4945579;28;20117;-77
2022/09/27 00:22:31;;;;;;;;;;;11.30;99.90;;;;;;4963814;28;20066;-76
2022/09/27 00:24:56;;;;;;;5.47;1.27;;;11.30;99.90;;;;;;4963302;28;19910;-76
2022/09/27 00:27:22;;;;;;;5.20;1.40;;;11.30;99.90;;;;;;4949472;28;20625;-75
2022/09/27 00:29:51;;;;;;;8.65;1.63;;;11.30;99.90;;;;;;4962995;28;20035;-76
2022/09/27 00:32:16;;;;;;;12.60;1.85;;;11.30;99.90;;;;;;4964472;28;20106;-77
2022/09/27 00:34:49;;;;;;;7.82;2.13;;;11.30;99.90;;;;;;4963823;28;20436;-75
2022/09/27 00:37:17;;;;;;;12.02;2.50;;;11.30;99.90;;;;;;4966366;28;20437;-77
2022/09/27 00:39:43;;;;;;;9.93;2.90;;;11.30;99.90;;;;;;4964421;28;20058;-77
2022/09/27 00:42:12;;;;;;;8.07;2.70;;;11.30;99.90;;;;;;4949296;28;20479;-76
2022/09/27 00:44:38;;;;;;;5.88;2.70;;;11.30;99.90;;;;;;4958245;28;20483;-75
2022/09/27 00:47:13;;;;;;;10.30;2.85;;;11.20;99.90;;;;;;4960392;28;20027;-74
2022/09/27 00:49:44;;;;;;;11.00;2.78;;;11.20;99.90;;;;;;4967190;28;20062;-77
2022/09/27 00:52:15;;;;;;;8.85;2.95;;;11.30;99.90;;;;;;4963973;28;20035;-77
2022/09/27 00:54:46;;;;;;;4.20;2.78;;;11.20;99.90;;;;;;4960101;28;20077;-78
2022/09/27 00:57:11;;;;;;;8.73;3.33;;;11.30;99.90;;;;;;4960306;28;20038;-78
2022/09/27 00:59:54;;;;;;;11.52;2.90;;;11.20;99.90;;;;;;4963240;28;20031;-75
2022/09/27 01:02:20;;;;;;;7.63;3.30;;;11.20;99.90;;;;;;4960406;28;20042;-76
2022/09/27 01:04:48;;;;;;;9.00;3.45;;;11.20;99.90;;;;;;4958846;28;20035;-73
2022/09/27 01:07:14;;;;;;;5.20;3.03;;;11.30;99.90;;;;;;4961342;28;20034;-78
2022/09/27 01:09:40;;;;;;;7.82;3.10;;;11.30;99.90;;;;;;4957275;28;20454;-76
2022/09/27 01:12:24;;;;;;;16.80;3.33;;;11.30;99.90;;;;;;4960199;28;20070;-78
2022/09/27 01:15:17;;;;;;;8.38;2.97;;;11.20;99.90;;;;;;4961083;28;20038;-77
2022/09/27 01:17:51;;;;;;;;;;;11.30;99.90;;;;;;4964926;28;20019;-78
2022/09/27 01:20:47;;;;;;;11.57;2.65;;;11.30;99.90;;;;;;4961149;28;19945;-75
2022/09/27 01:23:38;;;;;;;9.25;2.30;;;11.20;99.90;;;;;;4946442;28;20031;-76
2022/09/27 01:26:45;;;;;;;9.63;2.50;;;11.30;99.90;;;;;;4966281;28;20044;-78
2022/09/27 01:29:26;;;;;;;12.55;2.20;;;11.30;99.90;;;;;;4903168;28;20042;-76
2022/09/27 01:31:58;;;;;;;8.02;2.30;;;11.40;99.90;;;;;;4961964;28;20034;-76
2022/09/27 01:34:44;;;;;;;6.60;2.03;;;11.30;99.90;;;;;;4965688;28;20026;-77
2022/09/27 01:37:10;;;;;;;10.35;1.70;;;11.30;99.90;;;;;;4960551;28;20105;-79
2022/09/27 01:40:04;;;;;;;5.15;2.25;;;11.30;99.90;;;;;;4963442;28;20452;-78
2022/09/27 01:42:47;;;;;;;7.93;2.08;;;11.30;99.90;;;;;;4964813;28;20101;-78
2022/09/27 01:45:25;;;;;;;4.15;1.48;;;11.30;99.90;;;;;;4962933;28;20141;-78
2022/09/27 01:47:55;;;;;;;8.40;1.50;;;11.20;99.90;;;;;;4961695;28;20137;-78
2022/09/27 01:50:32;;;;;;;10.60;1.83;;;11.20;99.90;;;;;;4963734;28;20089;-80
2022/09/27 01:53:08;;;;;;;4.47;1.50;;;11.20;99.90;;;;;;4948362;28;20823;-77
2022/09/27 01:55:39;;;;;;;4.47;1.55;;;11.20;99.90;;;;;;4948007;28;20031;-79
2022/09/27 01:58:32;;;;;;;5.63;1.27;;;11.10;99.90;;;;;;4966644;28;20141;-79
2022/09/27 02:01:02;;;;;;;7.03;1.65;;;11.20;99.90;;;;;;4947616;28;20027;-79
2022/09/27 02:03:35;;;;;;;5.72;2.13;;;11.10;99.90;;;;;;4965154;28;20046;-78
2022/09/27 02:06:08;;;;;;;6.15;1.63;;;11.10;99.90;;;;;;4965191;28;20766;-77
2022/09/27 02:08:52;;;;;;;3.78;1.25;;;11.10;99.90;;;;;;4962833;28;20073;-77
2022/09/27 02:11:20;;;;;;;3.20;1.48;;;11.10;99.90;;;;;;4966198;28;20054;-77
2022/09/27 02:13:57;;;;;;;3.65;1.40;;;11.10;99.90;;;;;;4953071;28;20039;-77
2022/09/27 02:16:52;;;;;;;7.30;1.48;;;11.00;99.90;;;;;;4959232;28;20085;-78
2022/09/27 02:19:44;;;;;;;10.38;1.55;;;11.10;99.90;;;;;;4964035;28;20097;-78
2022/09/27 02:22:38;;;;;;;4.13;1.30;;;11.00;99.90;;;;;;4968865;28;20015;-78
2022/09/27 02:25:37;;;;;;;7.07;1.38;;;11.00;99.90;;;;;;4968772;28;20062;-76
2022/09/27 02:28:20;;;;;;;5.53;1.20;;;11.10;99.90;;;;;;4965019;28;20046;-78
2022/09/27 02:30:46;;;;;;;6.93;1.67;;;11.00;99.90;;;;;;4948247;28;20632;-79
2022/09/27 02:33:12;;;;;;;7.72;1.63;;;11.00;99.90;;;;;;4952316;28;20105;-78
2022/09/27 02:35:40;;;;;;;5.55;1.08;;;11.00;99.90;;;;;;4962805;28;20095;-77
2022/09/27 02:38:09;;;;;;;6.72;1.55;;;11.00;99.90;;;;;;4964503;28;20023;-79
2022/09/27 02:40:45;;;;;;;7.55;1.42;;;11.00;99.90;;;;;;4961268;28;20038;-77
2022/09/27 02:43:15;;;;;;;9.95;1.13;;;11.00;99.90;;;;;;4963139;28;20555;-79
2022/09/27 02:46:04;;;;;;;5.38;1.05;;;11.00;99.90;;;;;;4962111;28;20073;-79
2022/09/27 02:49:02;;;;;;;4.00;1.17;;;11.00;99.90;;;;;;4966761;28;20081;-76
2022/09/27 02:51:36;;;;;;;3.03;1.27;;;10.90;99.90;;;;;;4972898;28;20138;-78
2022/09/27 02:54:11;;;;;;;12.38;1.60;;;11.00;99.90;;;;;;4965131;28;20031;-80
2022/09/27 02:57:00;;;;;;;7.50;1.42;;;10.90;99.90;;;;;;4963949;28;20015;-78
2022/09/27 02:59:39;;;;;;;3.65;1.25;;;10.80;99.90;;;;;;4963602;28;20027;-80
2022/09/27 03:02:13;;;;;;;6.60;1.42;;;10.80;99.90;;;;;;4969108;28;20034;-74
2022/09/27 03:05:07;;;;;;;302.95;116.53;;;10.80;99.90;;;;;;4962791;28;20736;-75
2022/09/27 03:07:34;;;;;;;7.57;3.58;;;10.80;99.90;;;;;;4960058;28;20097;-76
2022/09/27 03:10:04;;;;;;;1.95;1.25;;;10.70;99.90;;;;;;4963882;28;20633;-77
2022/09/27 03:12:31;;;;;;;2.50;1.17;;;10.70;99.90;;;;;;4965227;28;20505;-79
2022/09/27 03:15:01;;;;;;;1.65;1.50;;;10.70;99.90;;;;;;4967898;28;20463;-79
2022/09/27 03:17:27;;;;;;;10.70;1.60;;;10.70;99.90;;;;;;4953417;28;20085;-78
2022/09/27 03:19:57;;;;;;;3.58;1.10;;;10.60;99.90;;;;;;4962005;28;20035;-75
2022/09/27 03:22:23;;;;;;;4.53;1.25;;;10.60;99.90;;;;;;4954128;28;20035;-80
2022/09/27 03:24:48;;;;;;;7.55;1.80;;;10.60;99.90;;;;;;4966666;28;20104;-79
2022/09/27 03:27:14;;;;;;;5.40;1.52;;;10.60;99.90;;;;;;4964168;28;20034;-79
2022/09/27 03:29:40;;;;;;;10.52;1.50;;;10.60;99.90;;;;;;4965899;28;20818;-78
2022/09/27 03:32:05;;;;;;;7.43;1.83;;;10.60;99.90;;;;;;4954251;28;21335;-80
2022/09/27 03:34:31;;;;;;;8.65;2.00;;;10.60;99.90;;;;;;4964467;28;20062;-79
2022/09/27 03:36:56;;;;;;;6.85;1.70;;;10.60;99.90;;;;;;4965859;28;20023;-81
2022/09/27 03:39:22;;;;;;;7.93;1.85;;;10.60;99.90;;;;;;4965916;28;20508;-80
2022/09/27 03:41:50;;;;;;;4.45;2.15;;;10.50;99.90;;;;;;4965564;28;20175;-80
2022/09/27 03:44:15;;;;;;;4.70;2.65;;;10.50;99.90;;;;;;4957908;28;20322;-81
2022/09/27 03:46:41;;;;;;;6.78;2.78;;;10.50;99.90;;;;;;4953982;28;20043;-81
2022/09/27 03:49:07;;;;;;;10.82;2.83;;;10.50;99.90;;;;;;4962945;28;20037;-80
2022/09/27 03:51:34;;;;;;;6.95;2.58;;;10.40;99.90;;;;;;4965984;28;20023;-81
2022/09/27 03:54:00;;;;;;;10.57;2.75;;;10.40;99.90;;;;;;4963155;28;20126;-81
2022/09/27 03:56:26;;;;;;;7.95;2.38;;;10.30;99.90;;;;;;4961928;28;20155;-79
2022/09/27 03:58:51;;;;;;;12.35;2.22;;;10.30;99.90;;;;;;4964957;28;20026;-80
2022/09/27 04:01:17;;;;;;;8.30;2.22;;;10.40;99.90;;;;;;4962835;28;20023;-79
2022/09/27 04:03:45;;;;;;;5.10;1.83;;;10.30;99.90;;;;;;4962036;28;20058;-77
2022/09/27 04:06:11;;;;;;;5.18;1.60;;;10.30;99.90;;;;;;4961134;28;20038;-80
2022/09/27 04:08:39;;;;;;;10.95;1.92;;;10.30;99.90;;;;;;4952364;28;20042;-79
2022/09/27 04:11:04;;;;;;;6.68;1.33;;;10.40;99.90;;;;;;4963763;28;20448;-81
2022/09/27 04:13:30;;;;;;;4.72;1.48;;;10.40;99.90;;;;;;4961380;28;20037;-80
2022/09/27 04:16:02;;;;;;;6.93;1.30;;;10.40;99.90;;;;;;4961957;28;20025;-80
2022/09/27 04:18:30;;;;;;;4.47;1.30;;;10.40;99.90;;;;;;4944878;28;20042;-81
2022/09/27 04:20:56;;;;;;;7.53;1.40;;;10.40;99.90;;;;;;4964385;28;20102;-79
2022/09/27 04:23:22;;;;;;;10.13;1.05;;;10.40;99.90;;;;;;4954217;28;20121;-80
2022/09/27 04:25:48;;;;;;;12.07;1.30;;;10.50;99.90;;;;;;4970346;28;20085;-77
2022/09/27 04:28:16;;;;;;;7.93;1.67;;;10.50;99.90;;;;;;4963126;28;20416;-82
2022/09/27 04:30:42;;;;;;;4.00;1.10;;;10.40;99.90;;;;;;4968220;28;20441;-75
2022/09/27 04:33:07;;;;;;;4.75;1.10;;;10.50;99.90;;;;;;4971578;28;20042;-81
2022/09/27 04:38:21;;;;;;;5.50;1.30;;;10.40;99.90;;;;;;4969468;28;20029;-82
2022/09/27 04:40:47;;;;;;;8.60;1.33;;;10.50;99.90;;;;;;4965767;28;20023;-79
2022/09/27 04:43:13;;;;;;;7.15;1.58;;;10.50;99.90;;;;;;4967026;28;20030;-79
2022/09/27 04:45:39;;;;;;;6.50;1.25;;;10.50;99.90;;;;;;4954704;28;20480;-80
2022/09/27 04:48:07;;;;;;;4.82;1.23;;;10.40;99.90;;;;;;4966144;28;20041;-80
2022/09/27 04:50:35;;;;;;;5.78;1.35;;;10.40;99.90;;;;;;4945489;28;20030;-81
2022/09/27 04:53:00;;;;;;;4.60;1.33;;;10.40;99.90;;;;;;4963992;28;20031;-80
2022/09/27 04:55:26;;;;;;;6.05;1.38;;;10.40;99.90;;;;;;4958262;28;20080;-80
2022/09/27 04:57:52;;;;;;;4.43;1.23;;;10.40;99.90;;;;;;4961773;28;20027;-81
2022/09/27 05:00:19;;;;;;;5.90;1.38;;;10.40;99.90;;;;;;4960903;28;20657;-81
2022/09/27 05:02:47;;;;;;;10.15;1.75;;;10.40;99.90;;;;;;4962521;28;20424;-81
2022/09/27 05:05:14;;;;;;;7.07;1.50;;;10.40;99.90;;;;;;4962012;28;20118;-80
2022/09/27 05:07:42;;;;;;;4.03;1.08;;;10.40;99.90;;;;;;4959625;28;20392;-81
2022/09/27 05:10:08;;;;;;;2.50;1.00;;;10.30;99.90;;;;;;4963028;28;20044;-78
2022/09/27 05:12:34;;;;;;;7.53;1.15;;;10.30;99.90;;;;;;4958255;28;20035;-80
2022/09/27 05:15:00;;;;;;;8.77;1.73;;;10.30;99.90;;;;;;4963489;28;20516;-80
2022/09/27 05:17:26;;;;;;;7.68;1.33;;;10.30;99.90;;;;;;4964051;28;20122;-80
2022/09/27 05:19:52;;;;;;;8.25;1.30;;;10.30;99.90;;;;;;4960537;28;20130;-76
2022/09/27 05:22:18;;;;;;;4.43;1.40;;;10.30;99.90;;;;;;4962022;28;20027;-79
2022/09/27 05:24:45;;;;;;;6.60;1.42;;;10.30;99.90;;;;;;4961099;28;20083;-80
2022/09/27 05:27:19;;;;;;;8.32;1.40;;;10.40;99.90;;;;;;4960745;28;20058;-82
2022/09/27 05:29:47;;;;;;;7.53;1.40;;;10.40;99.90;;;;;;4963692;28;20062;-78
2022/09/27 05:32:16;;;;;;;10.85;1.75;;;10.40;99.90;;;;;;4964580;28;20042;-79
2022/09/27 05:34:44;;;;;;;4.45;1.10;;;10.40;99.90;;;;;;4954406;28;20050;-79
2022/09/27 05:37:09;;;;;;;9.43;1.05;;;10.40;99.90;;;;;;4951537;28;20038;-80
2022/09/27 05:39:35;;;;;;;3.15;1.10;;;10.30;99.90;;;;;;4948303;28;20031;-82
2022/09/27 05:42:03;;;;;;;4.93;1.15;;;10.40;99.90;;;;;;4965777;28;20062;-79
2022/09/27 05:44:31;;;;;;;5.85;1.40;;;10.40;99.90;;;;;;4965470;28;20023;-79
2022/09/27 05:47:02;;;;;;;6.38;1.35;;;10.40;99.90;;;;;;4965849;28;20503;-78
2022/09/27 05:49:28;;;;;;;2.58;1.13;;;10.40;99.90;;;;;;4944986;28;20110;-81
2022/09/27 05:51:55;;;;;;;4.47;1.33;;;10.40;99.90;;;;;;4956748;28;20125;-78
2022/09/27 05:54:21;;;;;;;9.32;1.55;;;10.40;99.90;;;;;;4964378;28;20031;-75
2022/09/27 05:56:47;;;;;;;7.68;1.40;;;10.50;99.90;;;;;;4951522;28;20034;-81
2022/09/27 05:59:12;;;;;;;4.55;1.27;;;10.50;99.90;;;;;;4955907;28;20098;-79
2022/09/27 06:01:38;;;;;;;4.22;1.58;;;10.40;99.90;;;;;;4969234;28;20105;-82
2022/09/27 06:04:07;;;;;;;2.45;1.13;;;10.50;99.90;;;;;;4963017;28;20029;-79
2022/09/27 06:06:35;;;;;;;4.00;1.48;;;10.50;99.90;;;;;;4963760;28;20106;-82
2022/09/27 06:09:01;;;;;;;3.78;1.10;;;10.40;99.90;;;;;;4969255;28;20023;-82
2022/09/27 06:11:28;;;;;;;5.00;1.77;;;10.40;99.90;;;;;;4968869;28;20121;-82
2022/09/27 06:13:53;;;;;;;5.82;1.40;;;10.50;99.90;;;;;;4962759;28;20106;-78
2022/09/27 06:16:21;;;;;;;6.78;1.38;;;10.50;99.90;;;;;;4968076;28;20089;-80
2022/09/27 06:18:47;;;;;;;4.00;1.30;;;10.60;99.90;;;;;;4951297;28;20031;-80
2022/09/27 06:21:13;;;;;;;3.78;1.20;;;10.40;99.90;;;;;;4962268;28;20027;-80
2022/09/27 06:23:38;;;;;;;3.45;1.25;;;10.40;99.90;;;;;;4961502;28;20122;-81
2022/09/27 06:26:06;;;;;;;1.88;0.90;;;10.50;99.90;;;;;;4968023;28;20038;-79
2022/09/27 06:28:35;;;;;;;2.00;1.00;;;10.40;99.90;;;;;;4949328;28;20033;-81
2022/09/27 06:31:03;;;;;;;4.45;1.10;;;10.50;99.90;;;;;;4968706;28;20037;-82
2022/09/27 06:33:28;;;;;;;4.78;1.70;;;10.60;99.90;;;;;;4965078;28;20090;-78
2022/09/27 06:35:54;;;;;;;5.03;1.52;;;10.50;99.90;;;;;;4966872;28;20031;-79
2022/09/27 06:38:20;;;;;;;1.75;1.20;;;10.60;99.90;;;;;;4965249;28;20030;-77
2022/09/27 06:40:46;;;;;;;5.05;1.20;;;10.60;99.90;;;;;;4966857;28;20061;-80
2022/09/27 06:43:19;;;;;;;4.25;1.23;;;10.60;99.90;;;;;;4960741;28;20023;-80
2022/09/27 06:45:45;;;;;;;2.17;0.80;;;10.80;99.90;;;;;;4965936;28;20030;-78
2022/09/27 06:48:15;;;;;;;4.93;0.90;;;10.70;99.90;;;;;;4965011;28;20060;-81
2022/09/27 06:50:43;;;;;;;3.15;0.90;;;10.70;99.90;;;;;;4948192;28;20393;-81
2022/09/27 06:53:13;;;;;;;1.90;0.80;;;10.60;99.90;;;;;;4963082;28;20029;-81
2022/09/27 06:55:39;;;;;;;2.58;0.80;;;10.60;99.90;;;;;;4954195;28;20408;-82
2022/09/27 07:00:53;;;;;;;1.90;1.02;;;10.70;99.90;;;;;;4965088;28;20078;-83
2022/09/27 07:03:31;;;;;;;4.82;0.80;;;10.70;99.90;;;;;;4966147;28;20032;-81
2022/09/27 07:05:59;;;;;;;1.67;0.90;;;10.70;99.90;;;;;;4966557;28;20503;-81
2022/09/27 07:08:27;;;;;;;1.55;0.60;;;10.90;99.90;;;;;;4966470;28;20027;-80
2022/09/27 07:11:03;;;;;;;2.17;0.70;;;10.90;99.90;;;;;;4963200;28;20031;-83
2022/09/27 07:13:33;;;;;;;3.10;1.08;;;10.90;99.90;;;;;;4960109;28;20062;-77
2022/09/27 07:15:59;;;;;;;6.72;1.20;;;10.80;99.90;;;;;;4964646;28;20125;-80
2022/09/27 07:18:28;;;;;;;2.22;0.80;;;10.80;99.90;;;;;;4964660;28;20031;-79
2022/09/27 07:20:53;;;;;;;3.10;1.05;;;10.80;99.90;;;;;;4964426;28;20058;-79
2022/09/27 07:23:19;;;;;;;1.48;0.90;;;10.80;99.90;;;;;;4964330;28;20027;-77
2022/09/27 07:25:46;;;;;;;2.20;1.55;;;10.90;99.90;;;;;;4967132;28;20030;-82
2022/09/27 07:28:17;;;;;;;1.70;0.80;;;11.00;99.90;;;;;;4965810;28;20109;-81
2022/09/27 07:30:46;;;;;;;1.80;0.80;;;10.90;99.90;;;;;;4962770;28;20037;-82
2022/09/27 07:33:12;;;;;;;0.90;0.60;;;11.00;99.90;;;;;;4967523;28;20027;-81
2022/09/27 07:35:39;;;;;;;3.28;0.73;;;11.00;99.90;;;;;;4956175;28;20045;-80
2022/09/27 07:38:07;;;;;;;2.30;0.57;;;11.20;99.90;;;;;;4968862;28;20034;-82
2022/09/27 07:40:39;;;;;;;1.27;0.70;;;11.40;99.90;;;;;;4969544;28;20059;-81
2022/09/27 07:43:05;;;;;;;1.83;0.70;;;11.50;99.90;;;;;;4968244;28;20045;-81
2022/09/27 07:45:34;;;;;;;2.78;0.73;;;11.70;99.90;;;;;;4963174;28;20538;-79
2022/09/27 07:48:00;;;;;;;1.20;0.77;;;11.70;99.90;;;;;;4965343;28;20023;-79
2022/09/27 07:50:29;;;;;;;1.30;0.80;;;11.80;99.90;;;;;;4962267;28;20028;-82
2022/09/27 07:52:57;;;;;;;4.05;0.68;;;11.80;99.90;;;;;;4948625;28;20357;-82
2022/09/27 07:55:23;;;;;;;5.03;0.95;;;11.70;99.90;;;;;;4942637;28;20026;-82
2022/09/27 07:57:49;;;;;;;1.15;0.80;;;11.80;99.90;;;;;;4964987;28;20019;-84
2022/09/27 08:00:18;;;;;;;3.58;0.80;;;11.80;99.90;;;;;;4950036;28;20089;-81
2022/09/27 08:02:44;;;;;;;4.60;0.70;;;11.90;99.90;;;;;;4961318;28;20041;-80
2022/09/27 08:05:13;;;;;;;1.55;0.60;;;11.90;99.90;;;;;;4965276;28;20110;-81
2022/09/27 08:07:39;;;;;;;1.63;0.77;;;12.00;99.90;;;;;;4967372;28;20447;-78
2022/09/27 08:10:08;;;;;;;3.42;1.15;;;12.40;99.90;;;;;;4961095;28;20038;-81
2022/09/27 08:12:35;;;;;;;3.63;0.77;;;12.40;99.90;;;;;;4953727;28;20086;-81
2022/09/27 08:15:02;;;;;;;3.28;1.20;;;12.80;99.90;;;;;;4964690;28;20117;-81
2022/09/27 08:17:31;;;;;;;3.78;0.85;;;12.80;99.90;;;;;;4962630;28;20320;-80
2022/09/27 08:20:01;;;;;;;2.55;1.08;;;12.80;99.90;;;;;;4960682;28;20039;-80
2022/09/27 08:22:26;;;;;;;0.73;0.57;;;12.90;99.90;;;;;;4963011;28;20138;-80
2022/09/27 08:24:54;;;;;;;1.92;0.80;;;12.70;99.90;;;;;;4964686;28;20154;-83
2022/09/27 08:27:22;;;;;;;4.00;0.70;;;12.50;99.90;;;;;;4964499;28;20023;-84
2022/09/27 08:29:50;;;;;;;1.38;0.65;;;12.50;99.90;;;;;;4961325;28;20523;-84
2022/09/27 08:32:16;;;;;;;2.45;0.75;;;12.60;99.90;;;;;;4954955;28;20038;-81
2022/09/27 08:34:42;;;;;;;1.55;0.65;;;12.50;99.90;;;;;;4953936;28;20023;-81
2022/09/27 08:37:07;;;;;;;6.80;0.65;;;12.40;99.90;;;;;;4962988;28;20098;-81
2022/09/27 08:39:36;;;;;;;0.77;0.70;;;12.30;99.90;;;;;;4961476;28;20027;-80
2022/09/27 08:42:17;;;;;;;3.17;1.02;;;12.30;99.90;;;;;;4942799;28;20034;-78
2022/09/27 08:45:09;;;;;;;2.13;0.80;;;12.40;99.90;;;;;;4966337;28;20031;-83
2022/09/27 08:47:40;;;;;;;0.80;0.65;;;12.40;99.90;;;;;;4942065;28;20035;-83
2022/09/27 08:50:15;;;;;;;1.85;0.85;;;12.30;99.90;;;;;;4964009;28;20054;-78
2022/09/27 08:53:13;;;;;;;1.17;0.85;;;12.10;99.90;;;;;;4965973;28;20031;-79
2022/09/27 08:55:46;;;;;;;4.13;0.90;;;12.10;99.90;;;;;;4937434;28;20031;-83
2022/09/27 08:58:20;;;;;;;1.92;0.73;;;12.10;99.90;;;;;;4960421;28;20550;-80
2022/09/27 09:00:54;;;;;;;2.35;0.70;;;11.90;99.90;;;;;;4963747;28;20035;-82
2022/09/27 09:03:23;;;;;;;2.70;0.93;;;11.90;99.90;;;;;;4968949;28;20027;-79
2022/09/27 09:06:22;;;;;;;1.58;0.93;;;12.10;99.90;;;;;;4951351;28;20039;-83
2022/09/27 09:08:53;;;;;;;3.55;1.17;;;12.20;99.90;;;;;;4969414;28;20038;-83
2022/09/27 09:14:54;;;;;;;4.38;1.05;;;12.30;99.90;;;;;;4968894;28;20479;-83
2022/09/27 09:17:57;;;;;;;1.15;0.98;;;12.10;99.90;;;;;;4968411;28;20031;-83
2022/09/27 09:20:48;;;;;;;5.00;1.60;;;12.00;99.90;;;;;;4947639;28;20484;-80
2022/09/27 09:23:53;;;;;;;1.23;0.82;;;11.90;99.90;;;;;;4970044;28;20029;-82
2022/09/27 09:26:43;;;;;;;2.53;1.10;;;11.90;99.90;;;;;;4947936;28;20031;-85
2022/09/27 09:29:35;;;;;;;3.35;1.42;;;11.80;99.90;;;;;;4962705;28;20035;-78
2022/09/27 09:32:06;;;;;;;2.63;1.55;;;11.80;99.90;;;;;;4970821;28;20110;-84
2022/09/27 09:34:48;;;;;;;1.45;1.35;;;11.90;99.90;;;;;;4968001;28;20045;-80
2022/09/27 09:37:31;;;;;;;3.57;1.77;;;12.00;99.90;;;;;;4964547;28;20027;-81
2022/09/27 09:40:04;;;;;;;5.43;1.65;;;11.80;99.90;;;;;;4948178;28;20041;-82
2022/09/27 09:42:32;;;;;;;2.25;1.40;;;11.80;99.90;;;;;;4954468;28;20054;-83
2022/09/27 09:45:15;;;;;;;4.55;1.90;;;11.90;99.90;;;;;;4953335;28;20441;-80
2022/09/27 09:47:53;;;;;;;2.53;2.00;;;11.90;99.90;;;;;;4968755;28;20434;-82
2022/09/27 09:50:26;;;;;;;4.68;1.90;;;12.10;99.90;;;;;;4950502;28;20027;-81
2022/09/27 09:53:15;;;;;;;5.10;1.60;;;12.20;99.90;;;;;;4965433;28;20436;-80
2022/09/27 09:55:45;;;;;;;2.47;1.60;;;12.40;99.90;;;;;;4962352;28;20102;-82
2022/09/27 09:58:25;;;;;;;4.53;1.67;;;12.50;99.90;;;;;;4966708;28;20030;-84
2022/09/27 10:00:54;;;;;;;4.28;1.50;;;12.60;99.90;;;;;;4967053;28;20019;-85
2022/09/27 10:03:23;;;;;;;3.80;1.33;;;12.80;99.90;;;;;;4967934;28;20448;-80
2022/09/27 10:05:51;;;;;;;4.13;1.95;;;12.80;99.90;;;;;;4962923;28;20114;-85
2022/09/27 10:08:20;;;;;;;9.48;2.25;;;12.70;99.90;;;;;;4964339;28;20027;-82
2022/09/27 10:10:46;;;;;;;2.40;1.45;;;12.70;99.90;;;;;;4951779;28;20090;-82
2022/09/27 10:13:17;;;;;;;3.95;1.85;;;12.70;99.90;;;;;;4970432;28;20221;-82
2022/09/27 10:15:51;;;;;;;2.13;1.80;;;12.40;99.90;;;;;;4967505;28;20085;-83
2022/09/27 10:18:19;;;;;;;2.90;2.70;;;12.20;99.90;;;;;;4969612;28;20098;-83
2022/09/27 10:20:57;;;;;;;43.17;19.45;;;12.20;99.90;;;;;;4965060;28;20027;-75
2022/09/27 10:23:24;;;;;;;7.90;5.32;;;12.10;99.90;;;;;;4961994;28;20046;-86
2022/09/27 10:25:57;;;;;;;2.50;2.30;;;12.30;99.90;;;;;;4965737;28;20030;-80
2022/09/27 10:28:40;;;;;;;4.03;2.35;;;12.10;99.90;;;;;;4950194;28;20026;-81
2022/09/27 10:31:30;;;;;;;5.03;2.80;;;12.00;99.90;;;;;;4955660;28;20454;-78
2022/09/27 10:34:00;;;;;;;2.72;2.22;;;12.00;99.90;;;;;;4969651;28;20664;-82
2022/09/27 10:36:34;;;;;;;5.45;2.50;;;11.70;99.90;;;;;;4967687;28;20034;-87
2022/09/27 10:39:05;;;;;;;5.25;2.05;;;11.30;99.90;;;;;;4966437;28;20081;-84
2022/09/27 10:41:38;;;;;;;5.85;2.60;;;11.10;99.90;;;;;;4969291;28;20035;-88
2022/09/27 10:44:19;;;;;;;5.32;2.55;;;11.10;99.90;;;;;;4967161;28;20336;-82
2022/09/27 10:46:48;;;;;;;4.43;2.30;;;11.10;99.90;;;;;;4950914;28;20050;-81
2022/09/27 10:49:31;;;;;;;3.53;2.95;;;11.20;99.90;;;;;;4968383;28;20027;-85
2022/09/27 10:52:15;;;;;;;5.18;4.45;;;11.20;99.90;;;;;;4960560;28;20102;-78
2022/09/27 10:54:50;;;;;;;8.07;3.95;;;11.30;99.90;;;;;;4962103;28;20443;-75
2022/09/27 10:57:24;;;;;;;5.65;3.10;;;11.30;99.90;;;;;;4953632;28;20344;-75
2022/09/27 11:00:04;;;;;;;11.05;5.32;;;11.20;99.90;;;;;;4962205;28;20448;-76
2022/09/27 11:02:35;;;;;;;5.65;4.13;;;11.20;99.90;;;;;;4963415;28;20464;-77
2022/09/27 11:05:13;;;;;;;4.60;3.58;;;11.30;99.90;;;;;;4968672;28;20031;-75
2022/09/27 11:07:56;;;;;;;5.05;3.95;;;11.30;99.90;;;;;;4969095;28;20031;-84
2022/09/27 11:10:30;;;;;;;3.83;3.53;;;11.20;99.90;;;;;;4972971;28;20073;-81
2022/09/27 11:13:14;;;;;;;4.35;4.05;;;11.30;99.90;;;;;;4964076;28;20038;-79
2022/09/27 11:16:04;;;;;;;4.80;4.03;;;11.30;99.90;;;;;;4946610;28;20026;-79
2022/09/27 11:18:49;;;;;;;5.43;4.10;;;11.40;99.90;;;;;;4964305;28;20041;-81
2022/09/27 11:21:26;;;;;;;4.88;4.30;;;11.50;99.90;;;;;;4962154;28;20081;-80
2022/09/27 11:24:07;;;;;;;6.32;4.03;;;11.70;99.90;;;;;;4962698;28;20038;-83
2022/09/27 11:26:45;;;;;;;6.03;4.18;;;11.70;99.90;;;;;;4963829;28;20062;-88
2022/09/27 11:29:49;;;;;;;4.57;4.05;;;11.80;99.90;;;;;;4967185;28;20026;-82
2022/09/27 11:32:43;;;;;;;3.80;3.45;;;11.80;99.90;;;;;;4961282;28;20448;-84
2022/09/27 11:35:46;;;;;;;4.80;3.85;;;11.90;99.90;;;;;;4966199;28;20448;-84
2022/09/27 11:39:02;;;;;;;5.85;3.45;;;11.70;99.90;;;;;;4963819;28;20468;-77
2022/09/27 11:41:43;;;;;;;14.90;6.07;;;11.80;99.90;;;;;;4896948;29;20680;-74
2022/09/27 11:44:20;;;;;;;3.88;3.35;;;12.10;99.90;;;;;;4895985;29;20287;-80
2022/09/27 11:46:58;;;;;;;4.90;3.00;;;12.20;99.90;;;;;;4943231;28;20030;-78
2022/09/27 11:49:50;;;;;;;4.15;3.05;;;12.20;99.90;;;;;;4964155;28;20427;-80
2022/09/27 11:52:41;;;;;;;4.47;3.63;;;12.30;99.90;;;;;;4964760;28;20027;-82
2022/09/27 11:55:17;;;;;;;3.33;3.03;;;12.20;99.90;;;;;;4944536;28;20401;-79
2022/09/27 11:58:07;;;;;;;5.95;3.45;;;12.30;99.90;;;;;;4963536;28;20027;-83
2022/09/27 12:00:44;;;;;;;4.38;3.40;;;12.40;99.90;;;;;;4962638;28;20086;-77
2022/09/27 12:03:21;;;;;;;3.90;3.33;;;12.40;99.90;;;;;;4960218;28;20120;-82
2022/09/27 12:05:55;;;;;;;3.53;3.22;;;12.40;99.90;;;;;;4947863;28;20031;-81
2022/09/27 12:09:05;;;;;;;3.22;2.97;;;12.60;99.90;;;;;;4966546;28;20030;-75
2022/09/27 12:11:39;;;;;;;5.97;2.55;;;12.80;99.90;;;;;;4912818;28;20535;-86
2022/09/27 12:14:12;;;;;;;5.38;2.70;;;13.30;99.90;;;;;;4966152;28;20620;-87
2022/09/27 12:16:40;;;;;;;3.00;2.78;;;13.40;99.90;;;;;;4953440;28;20076;-85
2022/09/27 12:19:17;;;;;;;4.47;2.97;;;13.50;99.90;;;;;;4945797;28;20026;-83
2022/09/27 12:21:43;;;;;;;3.33;2.50;;;13.70;99.90;;;;;;4943035;28;20026;-80
2022/09/27 12:24:22;;;;;;;3.80;2.45;;;13.70;99.90;;;;;;4955341;28;20126;-78
2022/09/27 12:26:56;;;;;;;5.82;2.85;;;13.80;99.90;;;;;;4961363;28;20027;-75
2022/09/27 12:29:32;;;;;;;4.43;2.58;;;13.80;99.90;;;;;;4950299;28;20190;-84
2022/09/27 12:32:10;;;;;;;3.17;2.00;;;13.90;99.90;;;;;;4961165;28;20034;-82
2022/09/27 12:34:55;;;;;;;4.15;2.13;;;13.90;99.90;;;;;;4958335;28;20038;-84
2022/09/27 12:37:30;;;;;;;2.53;1.50;;;13.80;99.90;;;;;;4961487;28;21306;-84
2022/09/27 12:40:22;;;;;;;3.35;1.83;;;13.60;99.90;;;;;;4960974;28;20023;-85
2022/09/27 12:42:58;;;;;;;3.75;1.40;;;13.50;99.90;;;;;;4961568;28;20027;-83
2022/09/27 12:45:49;;;;;;;1.88;1.58;;;13.40;99.90;;;;;;4961434;28;20467;-84
2022/09/27 12:48:28;;;;;;;2.15;1.40;;;13.40;99.90;;;;;;4935982;28;20133;-76
2022/09/27 12:51:03;;;;;;;1.17;1.08;;;13.40;99.90;;;;;;4944036;28;20031;-77
2022/09/27 12:54:04;;;;;;;1.30;1.20;;;13.60;99.90;;;;;;4961617;28;20333;-79
2022/09/27 12:56:50;;;;;;;1.40;1.30;;;14.00;99.90;;;;;;4946887;28;20050;-84
2022/09/27 12:59:35;;;;;;;4.60;1.52;;;14.50;99.90;;;;;;4962473;28;20081;-82
2022/09/27 13:02:39;;;;;;;1.40;1.30;;;14.70;99.90;;;;;;4956700;28;20046;-81
2022/09/27 13:05:34;;;;;;;2.92;1.20;;;14.50;99.90;;;;;;4965318;28;20116;-83
2022/09/27 13:08:20;;;;;;;3.55;1.30;;;14.30;99.90;;;;;;4961559;28;20061;-83
2022/09/27 13:10:52;;;;;;;1.80;1.02;;;14.10;99.90;;;;;;4963973;28;20031;-84
2022/09/27 13:13:21;;;;;;;2.25;1.38;;;14.00;99.90;;;;;;4967856;28;20022;-84
2022/09/27 13:15:48;;;;;;;1.20;1.10;;;14.10;99.90;;;;;;4970065;28;20019;-82
2022/09/27 13:18:36;;;;;;;1.02;0.88;;;14.00;99.90;;;;;;4930636;28;1091352;-81
2022/09/27 13:21:07;;;;;;;98.75;49.45;;;14.10;99.90;;;;;;4961353;28;20054;-75
2022/09/27 13:23:39;;;;;;;133.95;49.83;;;14.40;99.90;;;;;;4964060;28;20736;-75
2022/09/27 13:26:23;;;;;;;6.53;1.00;;;14.70;99.90;;;;;;4968108;28;20047;-79